Startpagina
METAR-TAF:

METAR-TAF

Vliegvelden :

Uden, Nederland

Vliegbasis Volkel

breedte: 51-39N, lengte: 005-42E, hoogte: 22 m

Actueel weer

Dit bericht is 19 minuten geleden gemaakt, om 18:55 UTC
Wind 2 kt uit variabele richting
Temperatuur 13°C
Vochtigheid 62%
Druk 1016 hPa
Zicht 10 km of meer
Geheel bewolkt op 19000 ft

METAR: EHVK 231855Z AUTO VRB02KT 9999 OVC190 13/06 Q1016 BLU

Tijdstip: 21:14 (19:14 UTC)

Verwachting

Dit bericht is 10 uur en het 39 minuten geleden gemaakt, om 08:35 UTC
Verwachting geldig van 23 om 09 UTC tot 23 om 21 UTC
Wind 12 kt uit het westzuidwesten met uitschieters tot 22 kt
Zicht 10 km of meer
Verspreide wolken op 2200 ft

TAF: EHVK 230835Z 2309/2321 25012G22KT 9999 SCT022

Waarnemingen en weersverwachtingen van meer dan 4000 vliegvelden (METAR en TAF).

De beschikbare stations zijn de gele en rode punten op de kaart.

Ga met uw muis naar het station om de naam te zien.

Klik dan om waarnemingen en weersverwachtingen te zien.

kaart wijzigen: klik op de groene knoppen met een zwart kruis om in te zoomen, op de groene knop met een streepje om uit te zoomen of op de groene pijlen voor aangrenzende kaarten.


METAR-TAF: